Time;durP1;ratioP1;P1;durP2;ratioP2;P2;SDS_P1;SDS_P2;PMS_P1;PMS_P2;Temp;Humidity;BMP_temperature;BMP_pressure;BME280_temperature;BME280_humidity;BME280_pressure;Samples;Min_cycle;Max_cycle;Signal;HPM_P1;HPM_P2
2023/09/10 00:02:14;;;;;;;21.42;9.40;;;27.70;73.60;;;;;;7414242;19;20017;-80
2023/09/10 00:04:49;;;;;;;19.65;9.80;;;27.70;73.60;;;;;;7395505;19;20007;-80
2023/09/10 00:07:18;;;;;;;16.88;9.30;;;27.80;74.00;;;;;;7396250;19;20034;-80
2023/09/10 00:09:52;;;;;;;17.60;9.18;;;27.80;73.70;;;;;;7393775;19;20071;-80
2023/09/10 00:12:31;;;;;;;18.88;9.50;;;27.70;73.30;;;;;;7386890;19;20055;-80
2023/09/10 00:15:00;;;;;;;18.45;9.18;;;27.70;73.40;;;;;;7386687;19;20009;-81
2023/09/10 00:17:29;;;;;;;19.00;9.45;;;27.60;73.30;;;;;;7386492;19;20003;-81
2023/09/10 00:19:57;;;;;;;16.10;8.57;;;27.60;73.40;;;;;;7406991;19;20010;-81
2023/09/10 00:22:26;;;;;;;21.95;8.77;;;27.60;73.20;;;;;;7387133;19;20014;-80
2023/09/10 00:24:55;;;;;;;15.82;8.45;;;27.50;73.00;;;;;;7387836;19;20034;-81
2023/09/10 00:27:26;;;;;;;11.20;7.95;;;27.50;73.10;;;;;;7386469;19;20014;-80
2023/09/10 00:29:57;;;;;;;18.75;8.77;;;27.40;73.30;;;;;;7387102;19;20350;-81
2023/09/10 00:32:36;;;;;;;28.40;12.20;;;27.40;73.60;;;;;;7387888;19;20027;-81
2023/09/10 00:35:07;;;;;;;18.17;9.02;;;27.40;73.40;;;;;;7409605;19;20027;-81
2023/09/10 00:37:39;;;;;;;15.82;8.00;;;27.40;73.30;;;;;;7390134;19;20014;-80
2023/09/10 00:40:14;;;;;;;17.15;9.23;;;27.40;73.30;;;;;;7390057;19;20006;-80
2023/09/10 00:42:45;;;;;;;16.50;8.35;;;27.40;73.60;;;;;;7395499;19;20010;-80
2023/09/10 00:45:16;;;;;;;15.68;8.52;;;27.40;73.70;;;;;;7398262;19;20011;-80
2023/09/10 00:47:50;;;;;;;21.10;8.77;;;27.40;73.80;;;;;;7402090;19;20007;-81
2023/09/10 00:50:23;;;;;;;16.33;8.55;;;27.30;73.60;;;;;;7395620;19;20223;-81
2023/09/10 00:52:58;;;;;;;18.30;9.05;;;27.30;73.70;;;;;;7416686;19;20014;-80
2023/09/10 00:55:32;;;;;;;17.17;8.73;;;27.40;73.90;;;;;;7402041;19;20030;-80
2023/09/10 00:58:04;;;;;;;19.52;9.23;;;27.40;74.00;;;;;;7391794;19;20055;-80
2023/09/10 01:00:35;;;;;;;15.55;8.65;;;27.30;73.80;;;;;;7385573;19;20035;-81
2023/09/10 01:03:08;;;;;;;19.15;9.52;;;27.30;74.00;;;;;;7383298;19;20006;-81
2023/09/10 01:05:38;;;;;;;13.88;8.60;;;27.30;74.10;;;;;;7382103;19;20024;-81
2023/09/10 01:08:11;;;;;;;17.23;8.40;;;27.20;74.30;;;;;;7403641;19;20006;-81
2023/09/10 01:10:46;;;;;;;17.35;8.35;;;27.20;74.40;;;;;;7381263;19;20366;-79
2023/09/10 01:13:26;;;;;;;13.82;8.32;;;27.10;74.40;;;;;;7385982;19;20407;-80
2023/09/10 01:16:00;;;;;;;24.92;8.45;;;27.10;74.30;;;;;;7381534;19;20003;-82
2023/09/10 01:18:40;;;;;;;15.68;8.13;;;27.10;74.40;;;;;;7384247;19;20007;-80
2023/09/10 01:21:30;;;;;;;11.55;7.35;;;27.20;74.60;;;;;;7382135;19;20080;-79
2023/09/10 01:24:10;;;;;;;17.52;8.88;;;27.10;74.40;;;;;;7381105;19;20066;-80
2023/09/10 01:26:42;;;;;;;19.90;7.72;;;27.10;74.40;;;;;;7383539;19;20021;-81
2023/09/10 01:29:15;;;;;;;19.58;7.50;;;27.10;74.40;;;;;;7406411;19;20006;-81
2023/09/10 01:31:52;;;;;;;20.88;8.32;;;27.10;74.30;;;;;;7382140;19;20019;-80
2023/09/10 01:34:26;;;;;;;14.98;7.45;;;27.10;74.30;;;;;;7383033;19;20007;-81
2023/09/10 01:36:59;;;;;;;16.75;7.65;;;27.00;74.50;;;;;;7382714;19;20003;-81
2023/09/10 01:39:36;;;;;;;12.65;7.95;;;27.00;74.60;;;;;;7382432;19;20030;-80
2023/09/10 01:42:14;;;;;;;15.25;7.20;;;26.90;74.60;;;;;;7381832;19;20023;-81
2023/09/10 01:44:44;;;;;;;18.38;7.53;;;26.90;74.80;;;;;;7383543;19;20022;-80
2023/09/10 01:47:16;;;;;;;13.15;7.93;;;26.90;74.80;;;;;;7415431;19;20010;-81
2023/09/10 01:49:45;;;;;;;13.40;7.25;;;26.90;74.90;;;;;;7393587;19;20006;-81
2023/09/10 01:52:14;;;;;;;16.27;8.05;;;26.90;74.90;;;;;;7392927;19;20320;-80
2023/09/10 01:54:45;;;;;;;12.75;7.63;;;26.80;74.90;;;;;;7387436;19;20014;-80
2023/09/10 01:57:16;;;;;;;18.98;7.82;;;26.90;75.10;;;;;;7381577;19;20030;-80
2023/09/10 01:59:47;;;;;;;12.60;7.72;;;26.80;75.00;;;;;;7379462;19;20384;-79
2023/09/10 02:02:17;;;;;;;23.58;9.02;;;26.80;75.20;;;;;;7403221;19;20035;-80
2023/09/10 02:04:46;;;;;;;16.23;8.45;;;26.80;75.30;;;;;;7381181;19;20015;-80
2023/09/10 02:07:15;;;;;;;17.60;9.05;;;26.80;75.50;;;;;;7380912;19;20110;-80
2023/09/10 02:09:44;;;;;;;15.27;8.48;;;26.70;75.50;;;;;;7379776;19;20273;-79
2023/09/10 02:12:15;;;;;;;13.35;7.57;;;26.80;75.50;;;;;;7379963;19;20268;-80
2023/09/10 02:14:48;;;;;;;11.23;7.78;;;26.70;75.40;;;;;;7380032;19;20014;-80
2023/09/10 02:17:17;;;;;;;22.42;7.60;;;26.70;75.40;;;;;;7401226;19;20330;-80
2023/09/10 02:19:48;;;;;;;16.65;7.85;;;26.70;75.40;;;;;;7379925;19;20031;-81
2023/09/10 02:22:17;;;;;;;15.15;8.25;;;26.70;75.30;;;;;;7380163;19;19999;-80
2023/09/10 02:24:50;;;;;;;16.67;7.78;;;26.70;75.40;;;;;;7379133;19;20105;-80
2023/09/10 02:27:21;;;;;;;11.75;7.75;;;26.60;75.50;;;;;;7380783;19;20007;-80
2023/09/10 02:29:50;;;;;;;19.38;8.98;;;26.60;75.60;;;;;;7385735;19;20035;-80
2023/09/10 02:32:19;;;;;;;15.90;8.25;;;26.60;75.70;;;;;;7385621;19;20024;-80
2023/09/10 02:34:48;;;;;;;16.98;8.25;;;26.50;75.90;;;;;;7406048;19;20014;-80
2023/09/10 02:37:17;;;;;;;18.30;8.30;;;26.50;76.00;;;;;;7386670;19;20006;-80
2023/09/10 02:39:46;;;;;;;16.90;8.18;;;26.50;75.90;;;;;;7386944;19;20006;-81
2023/09/10 02:42:16;;;;;;;26.05;7.97;;;26.50;75.80;;;;;;7387197;19;20226;-80
2023/09/10 02:44:48;;;;;;;12.20;8.17;;;26.40;75.60;;;;;;7385270;19;20035;-80
2023/09/10 02:47:17;;;;;;;11.15;7.45;;;26.40;75.80;;;;;;7405711;19;20007;-80
2023/09/10 02:49:45;;;;;;;14.05;7.25;;;26.40;75.80;;;;;;7386802;19;20006;-80
2023/09/10 02:52:14;;;;;;;13.48;8.23;;;26.40;75.50;;;;;;7385840;19;20393;-80
2023/09/10 02:54:45;;;;;;;14.45;7.47;;;26.40;75.50;;;;;;7387320;19;20034;-80
2023/09/10 02:57:14;;;;;;;15.65;7.68;;;26.40;75.50;;;;;;7385984;19;20251;-80
2023/09/10 02:59:43;;;;;;;19.60;7.13;;;26.30;75.50;;;;;;7386488;19;20003;-81
2023/09/10 03:02:14;;;;;;;13.55;7.63;;;26.30;75.80;;;;;;7408720;19;20282;-80
2023/09/10 03:04:43;;;;;;;16.05;8.00;;;26.30;75.80;;;;;;7386030;19;20006;-80
2023/09/10 03:07:12;;;;;;;12.13;7.95;;;26.30;75.80;;;;;;7386368;19;20006;-80
2023/09/10 03:09:41;;;;;;;13.65;7.72;;;26.20;75.80;;;;;;7385006;19;20010;-80
2023/09/10 03:12:24;;;;;;;15.85;7.75;;;26.20;75.90;;;;;;7385485;19;20007;-80
2023/09/10 03:14:53;;;;;;;15.82;8.02;;;26.10;76.00;;;;;;7384208;19;20022;-80
2023/09/10 03:17:24;;;;;;;14.88;7.30;;;26.10;76.00;;;;;;7384352;19;20257;-80
2023/09/10 03:19:53;;;;;;;17.73;8.30;;;26.10;76.20;;;;;;7405877;19;20010;-80
2023/09/10 03:22:22;;;;;;;18.05;7.75;;;26.10;76.30;;;;;;7386355;19;20095;-80
2023/09/10 03:24:51;;;;;;;15.68;7.30;;;26.10;76.20;;;;;;7385110;19;20010;-80
2023/09/10 03:27:20;;;;;;;21.60;7.63;;;26.10;76.30;;;;;;7386584;19;20030;-80
2023/09/10 03:29:50;;;;;;;12.50;7.60;;;26.10;76.10;;;;;;7383847;19;20002;-79
2023/09/10 03:32:19;;;;;;;18.92;7.13;;;26.10;76.10;;;;;;7388134;19;20010;-80
2023/09/10 03:34:53;;;;;;;19.40;7.70;;;26.00;76.10;;;;;;7418470;19;20017;-79
2023/09/10 03:37:21;;;;;;;20.10;7.90;;;26.00;76.10;;;;;;7396542;19;20007;-79
2023/09/10 03:39:50;;;;;;;12.70;7.25;;;26.00;76.20;;;;;;7390942;19;20011;-80
2023/09/10 03:42:21;;;;;;;16.20;7.30;;;26.00;76.30;;;;;;7385299;19;20034;-80
2023/09/10 03:44:50;;;;;;;12.63;6.78;;;25.90;76.30;;;;;;7385586;19;20041;-80
2023/09/10 03:47:19;;;;;;;18.17;7.40;;;25.90;76.30;;;;;;7386542;19;20006;-80
2023/09/10 03:49:52;;;;;;;17.42;7.60;;;25.90;76.40;;;;;;7405460;19;19999;-80
2023/09/10 03:52:23;;;;;;;15.00;6.72;;;25.90;76.40;;;;;;7385184;19;20006;-81
2023/09/10 03:54:52;;;;;;;14.07;7.47;;;25.90;76.60;;;;;;7384492;19;20011;-80
2023/09/10 03:57:21;;;;;;;20.42;7.20;;;25.90;76.60;;;;;;7383328;19;20009;-80
2023/09/10 03:59:49;;;;;;;15.20;7.28;;;25.80;76.60;;;;;;7382842;19;20003;-80
2023/09/10 04:02:18;;;;;;;19.52;7.45;;;25.80;76.70;;;;;;7391643;19;20013;-80
2023/09/10 04:04:50;;;;;;;14.25;7.13;;;25.80;76.70;;;;;;7404776;19;20007;-79
2023/09/10 04:07:19;;;;;;;14.65;7.18;;;25.80;76.70;;;;;;7383913;19;20030;-81
2023/09/10 04:09:47;;;;;;;43.03;26.35;;;25.80;76.90;;;;;;7384409;19;20006;-82
2023/09/10 04:12:16;;;;;;;45.65;26.42;;;25.80;76.90;;;;;;7383647;19;20006;-81
2023/09/10 04:14:45;;;;;;;29.60;15.50;;;25.70;76.80;;;;;;7383218;19;20007;-80
2023/09/10 04:17:18;;;;;;;21.00;9.60;;;25.70;77.00;;;;;;7405217;19;20010;-80
2023/09/10 04:19:49;;;;;;;16.73;8.45;;;25.70;77.10;;;;;;7384211;19;20014;-80
2023/09/10 04:22:18;;;;;;;15.70;7.70;;;25.70;77.30;;;;;;7383573;19;20255;-79
2023/09/10 04:24:47;;;;;;;12.73;7.57;;;25.70;77.40;;;;;;7383166;19;20023;-79
2023/09/10 04:27:16;;;;;;;18.13;7.35;;;25.70;77.40;;;;;;7384238;19;20015;-80
2023/09/10 04:29:47;;;;;;;15.60;7.90;;;25.60;77.20;;;;;;7385122;19;20030;-79
2023/09/10 04:32:16;;;;;;;15.18;7.60;;;25.60;77.30;;;;;;7406331;19;20377;-80
2023/09/10 04:34:45;;;;;;;12.57;6.97;;;25.60;77.20;;;;;;7383156;19;20023;-80
2023/09/10 04:37:17;;;;;;;14.52;6.97;;;25.60;78.20;;;;;;7383650;19;20030;-80
2023/09/10 04:39:45;;;;;;;18.60;7.32;;;25.60;77.30;;;;;;7383095;19;20002;-80
2023/09/10 04:42:14;;;;;;;13.85;7.53;;;25.60;77.30;;;;;;7382292;19;20010;-80
2023/09/10 04:44:44;;;;;;;17.55;7.35;;;25.60;77.40;;;;;;7383703;19;20744;-79
2023/09/10 04:47:13;;;;;;;16.45;7.20;;;25.50;77.40;;;;;;7403590;19;20551;-80
2023/09/10 04:49:42;;;;;;;15.85;7.45;;;25.60;77.60;;;;;;7381166;19;19999;-80
2023/09/10 04:52:10;;;;;;;11.48;6.60;;;25.60;77.50;;;;;;7381963;19;20011;-80
2023/09/10 04:54:42;;;;;;;15.48;7.57;;;25.50;77.20;;;;;;7383064;19;20393;-81
2023/09/10 04:57:12;;;;;;;13.95;7.78;;;25.50;77.10;;;;;;7382562;19;20020;-80
2023/09/10 04:59:41;;;;;;;19.70;7.73;;;25.50;77.00;;;;;;7383115;19;20054;-80
2023/09/10 05:02:10;;;;;;;12.38;7.47;;;25.50;76.90;;;;;;7402609;19;20007;-80
2023/09/10 05:04:43;;;;;;;15.52;7.53;;;25.50;77.20;;;;;;7381832;19;19999;-79
2023/09/10 05:07:13;;;;;;;14.65;7.72;;;25.50;77.50;;;;;;7382018;19;20017;-78
2023/09/10 05:09:44;;;;;;;11.52;7.47;;;25.40;77.70;;;;;;7381142;19;20002;-80
2023/09/10 05:12:13;;;;;;;17.05;7.68;;;25.40;77.80;;;;;;7381093;19;19998;-80
2023/09/10 05:14:41;;;;;;;14.70;7.05;;;25.40;77.80;;;;;;7380662;19;20070;-79
2023/09/10 05:17:10;;;;;;;19.70;7.35;;;25.40;78.60;;;;;;7405788;19;20079;-80
2023/09/10 05:19:39;;;;;;;14.77;7.22;;;25.40;78.00;;;;;;7388583;19;20003;-81
2023/09/10 05:22:08;;;;;;;14.35;7.03;;;25.40;78.10;;;;;;7386688;19;20031;-79
2023/09/10 05:24:37;;;;;;;16.15;7.60;;;25.40;78.00;;;;;;7386381;19;20387;-79
2023/09/10 05:27:09;;;;;;;15.95;7.15;;;25.40;78.00;;;;;;7383913;19;20015;-80
2023/09/10 05:29:38;;;;;;;14.23;6.97;;;25.40;77.70;;;;;;7381564;19;20036;-80
2023/09/10 05:32:07;;;;;;;19.80;7.00;;;25.30;77.50;;;;;;7401909;19;20019;-80
2023/09/10 05:34:37;;;;;;;18.48;7.82;;;25.30;77.70;;;;;;7381031;19;20004;-80
2023/09/10 05:37:06;;;;;;;14.73;6.87;;;25.30;77.70;;;;;;7382194;19;20015;-80
2023/09/10 05:39:35;;;;;;;13.02;7.57;;;25.30;77.90;;;;;;7382124;19;20011;-80
2023/09/10 05:42:04;;;;;;;14.50;7.82;;;25.30;78.00;;;;;;7381904;19;20010;-80
2023/09/10 05:44:35;;;;;;;16.38;7.72;;;25.30;78.10;;;;;;7382618;19;20003;-80
2023/09/10 05:47:04;;;;;;;15.52;8.57;;;25.30;78.30;;;;;;7401377;19;20027;-80
2023/09/10 05:49:35;;;;;;;14.30;7.97;;;25.30;78.30;;;;;;7381398;19;20397;-80
2023/09/10 05:52:04;;;;;;;13.68;7.15;;;25.30;78.30;;;;;;7381836;19;20010;-80
2023/09/10 05:54:32;;;;;;;18.77;8.43;;;25.20;78.30;;;;;;7381917;19;20267;-81
2023/09/10 05:57:02;;;;;;;14.70;7.85;;;25.20;78.50;;;;;;7383392;19;20011;-80
2023/09/10 05:59:30;;;;;;;16.98;7.90;;;25.30;78.60;;;;;;7380737;19;20027;-80
2023/09/10 06:02:02;;;;;;;19.17;7.65;;;25.30;78.70;;;;;;7406106;19;20014;-80
2023/09/10 06:04:32;;;;;;;22.20;7.05;;;25.30;78.60;;;;;;7388400;19;20014;-80
2023/09/10 06:07:03;;;;;;;18.55;8.00;;;25.30;78.60;;;;;;7389635;19;20054;-80
2023/09/10 06:09:31;;;;;;;;;;;25.30;78.70;;;;;;7389964;19;20014;-80
2023/09/10 06:12:02;;;;;;;16.23;8.23;;;25.30;78.80;;;;;;7389695;19;19922;-80
2023/09/10 06:14:34;;;;;;;17.90;8.05;;;25.30;78.90;;;;;;7389498;19;20010;-80
2023/09/10 06:17:05;;;;;;;14.63;7.28;;;25.30;79.10;;;;;;7411542;19;20011;-80
2023/09/10 06:19:34;;;;;;;15.90;8.35;;;25.30;79.10;;;;;;7388092;19;20007;-81
2023/09/10 06:22:04;;;;;;;17.88;7.55;;;25.40;79.20;;;;;;7387644;19;20011;-81
2023/09/10 06:24:33;;;;;;;14.82;7.80;;;25.40;79.10;;;;;;7387310;19;19999;-80
2023/09/10 06:27:02;;;;;;;14.95;7.35;;;25.50;79.10;;;;;;7389382;19;20006;-80
2023/09/10 06:29:31;;;;;;;12.90;7.40;;;25.50;79.00;;;;;;7386210;19;20388;-80
2023/09/10 06:31:59;;;;;;;16.88;9.23;;;25.60;79.20;;;;;;7407673;19;20070;-81
2023/09/10 06:34:31;;;;;;;19.45;10.35;;;25.70;79.40;;;;;;7388439;19;20018;-79
2023/09/10 06:37:01;;;;;;;22.52;10.07;;;25.70;79.50;;;;;;7388132;19;20010;-79
2023/09/10 06:39:31;;;;;;;20.63;8.38;;;25.80;79.70;;;;;;7387335;19;20062;-80
2023/09/10 06:42:00;;;;;;;22.15;8.40;;;25.90;79.70;;;;;;7386696;19;20376;-80
2023/09/10 06:44:29;;;;;;;28.98;8.32;;;25.90;79.70;;;;;;7390459;19;20011;-82
2023/09/10 06:46:58;;;;;;;22.63;7.78;;;26.00;79.90;;;;;;7410696;19;20232;-80
2023/09/10 06:49:26;;;;;;;16.83;8.35;;;26.00;79.90;;;;;;7387493;19;20009;-81
2023/09/10 06:51:58;;;;;;;15.80;7.25;;;26.10;80.10;;;;;;7387692;19;20019;-79
2023/09/10 06:54:27;;;;;;;18.52;6.85;;;26.20;79.40;;;;;;7385648;19;20062;-80
2023/09/10 06:56:58;;;;;;;16.25;6.82;;;26.20;78.10;;;;;;7385300;19;19999;-80
2023/09/10 06:59:27;;;;;;;17.98;6.78;;;26.40;77.30;;;;;;7384723;19;20006;-81
2023/09/10 07:01:56;;;;;;;26.65;7.53;;;26.40;76.90;;;;;;7406754;19;20007;-80
2023/09/10 07:04:24;;;;;;;21.48;8.65;;;26.50;77.50;;;;;;7385996;19;20007;-81
2023/09/10 07:06:54;;;;;;;17.58;7.00;;;26.60;78.00;;;;;;7386329;19;20100;-81
2023/09/10 07:09:26;;;;;;;20.00;7.27;;;26.70;77.50;;;;;;7385624;19;20031;-81
2023/09/10 07:11:57;;;;;;;21.13;9.10;;;26.80;77.00;;;;;;7391080;19;20022;-80
2023/09/10 07:14:25;;;;;;;16.58;8.27;;;26.90;76.10;;;;;;7405046;19;20003;-80
2023/09/10 07:16:54;;;;;;;24.00;7.63;;;26.90;75.50;;;;;;7429294;19;19998;-80
2023/09/10 07:19:25;;;;;;;20.48;6.63;;;27.10;74.90;;;;;;7402325;19;20007;-79
2023/09/10 07:21:53;;;;;;;16.33;6.40;;;27.10;74.20;;;;;;7396670;19;20035;-79
2023/09/10 07:24:25;;;;;;;14.57;5.90;;;27.10;73.50;;;;;;7384180;19;20006;-80
2023/09/10 07:26:58;;;;;;;16.15;6.35;;;27.20;73.20;;;;;;7383451;19;20003;-80
2023/09/10 07:29:27;;;;;;;19.45;6.63;;;27.30;73.10;;;;;;7383550;19;20089;-80
2023/09/10 07:31:56;;;;;;;15.63;5.50;;;27.30;73.00;;;;;;7404244;19;20031;-79
2023/09/10 07:34:26;;;;;;;20.02;5.93;;;27.40;72.70;;;;;;7383951;19;20011;-80
2023/09/10 07:36:55;;;;;;;11.95;5.65;;;27.50;72.40;;;;;;7383406;19;20003;-80
2023/09/10 07:39:29;;;;;;;21.33;6.13;;;27.50;71.90;;;;;;7383947;19;20086;-80
2023/09/10 07:41:58;;;;;;;18.05;5.97;;;27.50;71.40;;;;;;7385620;19;20010;-80
2023/09/10 07:44:27;;;;;;;17.75;5.80;;;27.60;71.30;;;;;;7382526;19;20366;-80
2023/09/10 07:46:55;;;;;;;22.05;5.60;;;27.60;71.40;;;;;;7403847;19;20006;-81
2023/09/10 07:49:26;;;;;;;14.68;5.85;;;27.70;71.40;;;;;;7383167;19;20015;-80
2023/09/10 07:51:55;;;;;;;19.38;5.20;;;27.70;70.70;;;;;;7384881;19;20245;-81
2023/09/10 07:54:29;;;;;;;15.68;5.50;;;27.80;70.30;;;;;;7384254;19;20009;-81
2023/09/10 07:56:58;;;;;;;13.00;4.97;;;27.80;70.20;;;;;;7385476;19;20102;-81
2023/09/10 07:59:27;;;;;;;15.80;5.50;;;27.80;70.10;;;;;;7384566;19;20011;-81
2023/09/10 08:02:01;;;;;;;18.58;5.00;;;27.80;69.40;;;;;;7405190;19;20014;-80
2023/09/10 08:04:31;;;;;;;12.57;5.80;;;27.90;69.50;;;;;;7384238;19;20150;-81
2023/09/10 08:07:03;;;;;;;15.80;6.53;;;27.90;69.10;;;;;;7384066;19;20182;-80
2023/09/10 08:09:35;;;;;;;24.15;7.15;;;27.90;68.70;;;;;;7383731;19;20010;-81
2023/09/10 08:12:04;;;;;;;20.52;6.82;;;27.90;68.40;;;;;;7383410;19;20010;-81
2023/09/10 08:14:34;;;;;;;17.25;6.63;;;27.90;68.40;;;;;;7385363;19;20010;-81
2023/09/10 08:17:03;;;;;;;13.23;5.63;;;27.90;68.50;;;;;;7406337;19;19999;-81
2023/09/10 08:19:32;;;;;;;22.35;6.00;;;28.00;68.60;;;;;;7383521;19;20042;-80
2023/09/10 08:22:01;;;;;;;17.15;5.88;;;28.00;68.80;;;;;;7381506;19;20003;-80
2023/09/10 08:24:30;;;;;;;14.93;5.55;;;28.00;68.80;;;;;;7385003;19;20424;-81
2023/09/10 08:27:06;;;;;;;17.63;5.32;;;28.00;68.70;;;;;;7383171;19;20006;-81
2023/09/10 08:29:37;;;;;;;10.88;5.25;;;28.10;68.50;;;;;;7382725;19;20010;-81
2023/09/10 08:32:07;;;;;;;13.88;5.28;;;28.10;68.60;;;;;;7403584;19;20014;-81
2023/09/10 08:34:36;;;;;;;16.80;5.53;;;28.10;68.70;;;;;;7383101;19;20041;-81
2023/09/10 08:37:11;;;;;;;16.80;5.40;;;28.10;68.50;;;;;;7382863;19;20012;-80
2023/09/10 08:39:45;;;;;;;16.38;5.60;;;28.20;69.50;;;;;;7384416;19;20698;-81
2023/09/10 08:42:23;;;;;;;18.48;5.00;;;28.20;68.40;;;;;;7383823;19;20011;-81
2023/09/10 08:44:59;;;;;;;15.60;5.60;;;28.20;67.70;;;;;;7382281;19;20007;-80
2023/09/10 08:47:35;;;;;;;23.77;5.47;;;28.20;67.60;;;;;;7384603;19;20014;-80
2023/09/10 08:50:10;;;;;;;14.40;5.22;;;28.20;67.40;;;;;;7406301;19;20003;-80
2023/09/10 08:52:41;;;;;;;19.67;5.35;;;28.30;67.60;;;;;;7383653;19;20414;-80
2023/09/10 08:55:13;;;;;;;13.90;5.70;;;28.30;67.70;;;;;;7384320;19;20026;-80
2023/09/10 08:57:48;;;;;;;8.40;5.18;;;28.30;67.60;;;;;;7383090;19;20401;-81
2023/09/10 09:00:22;;;;;;;14.77;5.80;;;28.30;67.20;;;;;;7383944;19;20006;-80
2023/09/10 09:02:54;;;;;;;14.98;5.07;;;28.30;67.00;;;;;;7383975;19;20002;-81
2023/09/10 09:05:28;;;;;;;11.82;6.05;;;28.30;66.70;;;;;;7382685;19;20014;-80
2023/09/10 09:08:01;;;;;;;11.00;5.93;;;28.30;66.40;;;;;;7403583;19;20022;-80
2023/09/10 09:10:31;;;;;;;15.07;5.22;;;28.30;66.50;;;;;;7399749;19;20042;-80
2023/09/10 09:13:09;;;;;;;11.90;5.55;;;28.40;66.60;;;;;;7406543;19;20010;-80
2023/09/10 09:15:50;;;;;;;;;;;;;;;;;;;;;
2023/09/10 09:18:24;;;;;;;12.05;5.07;;;28.40;66.90;;;;;;7390348;19;20013;-79
2023/09/10 09:20:54;;;;;;;15.05;5.78;;;28.50;67.10;;;;;;7381279;19;20007;-79
2023/09/10 09:23:27;;;;;;;16.00;5.95;;;28.50;67.20;;;;;;7382382;19;20007;-79
2023/09/10 09:26:01;;;;;;;19.10;5.70;;;28.50;67.20;;;;;;7400915;19;20358;-80
2023/09/10 09:28:33;;;;;;;10.88;6.03;;;28.50;67.20;;;;;;7381092;19;20014;-80
2023/09/10 09:31:09;;;;;;;16.17;6.28;;;28.60;67.60;;;;;;7381069;19;20014;-80
2023/09/10 09:33:41;;;;;;;15.85;6.20;;;28.60;67.50;;;;;;7380674;19;20002;-80
2023/09/10 09:36:11;;;;;;;14.90;5.90;;;28.70;67.20;;;;;;7379632;19;20013;-81
2023/09/10 09:38:50;;;;;;;17.38;5.65;;;28.70;67.00;;;;;;7379740;19;20420;-81
2023/09/10 09:41:20;;;;;;;16.40;6.38;;;28.70;66.80;;;;;;7384199;19;20030;-80
2023/09/10 09:43:51;;;;;;;16.52;6.22;;;28.70;66.70;;;;;;7402085;19;20401;-81
2023/09/10 09:46:20;;;;;;;17.67;5.80;;;28.70;66.30;;;;;;7381294;19;20006;-81
2023/09/10 09:48:53;;;;;;;8.55;5.80;;;28.80;65.70;;;;;;7380896;19;20464;-80
2023/09/10 09:51:26;;;;;;;13.35;5.93;;;28.80;65.10;;;;;;7381291;19;20011;-80
2023/09/10 09:53:57;;;;;;;14.07;6.80;;;28.90;65.00;;;;;;7379339;19;20377;-79
2023/09/10 09:56:28;;;;;;;10.23;5.90;;;28.80;64.80;;;;;;7380822;19;20011;-80
2023/09/10 09:59:04;;;;;;;12.63;5.68;;;28.80;64.90;;;;;;7400049;19;20066;-80
2023/09/10 10:01:36;;;;;;;13.20;6.03;;;28.90;64.90;;;;;;7380902;19;20354;-79
2023/09/10 10:04:06;;;;;;;12.30;6.50;;;28.90;65.10;;;;;;7380666;19;20030;-80
2023/09/10 10:06:35;;;;;;;17.95;6.53;;;28.90;65.30;;;;;;7380751;19;20002;-81
2023/09/10 10:09:07;;;;;;;12.70;6.18;;;28.90;65.20;;;;;;7379609;19;20051;-80
2023/09/10 10:11:38;;;;;;;10.80;6.45;;;29.00;65.20;;;;;;7379555;19;19999;-80
2023/09/10 10:14:12;;;;;;;14.82;6.72;;;29.00;64.70;;;;;;7400519;19;20007;-80
2023/09/10 10:16:41;;;;;;;9.27;5.88;;;29.00;64.90;;;;;;7379731;19;20010;-80
2023/09/10 10:19:10;;;;;;;11.95;6.05;;;29.00;65.00;;;;;;7379784;19;20381;-80
2023/09/10 10:21:41;;;;;;;11.85;6.10;;;29.10;65.40;;;;;;7381060;19;20035;-80
2023/09/10 10:24:12;;;;;;;10.00;6.45;;;29.20;65.20;;;;;;7379510;19;20007;-81
2023/09/10 10:26:43;;;;;;;13.18;5.78;;;29.10;63.60;;;;;;7381530;19;20063;-81
2023/09/10 10:29:21;;;;;;;12.90;5.70;;;29.10;63.80;;;;;;7403871;19;20007;-81
2023/09/10 10:31:58;;;;;;;11.60;6.45;;;29.20;64.10;;;;;;7387425;19;20219;-79
2023/09/10 10:34:29;;;;;;;10.40;5.70;;;29.20;63.70;;;;;;7387194;19;20030;-79
2023/09/10 10:37:06;;;;;;;13.90;5.95;;;29.30;63.60;;;;;;7387743;19;20272;-80
2023/09/10 10:39:45;;;;;;;11.07;6.57;;;29.30;63.00;;;;;;7392144;19;20006;-81
2023/09/10 10:42:17;;;;;;;11.02;6.22;;;29.40;63.10;;;;;;7391671;19;20027;-80
2023/09/10 10:44:54;;;;;;;15.90;7.07;;;29.40;63.00;;;;;;7395960;19;20007;-81
2023/09/10 10:47:30;;;;;;;13.15;7.65;;;29.40;63.10;;;;;;7394590;19;20027;-80
2023/09/10 10:50:05;;;;;;;14.98;7.20;;;29.50;63.00;;;;;;7414070;19;20027;-80
2023/09/10 10:52:34;;;;;;;10.45;7.07;;;29.60;62.90;;;;;;7390114;19;20042;-82
2023/09/10 10:55:06;;;;;;;11.32;7.22;;;29.60;63.00;;;;;;7388433;19;20007;-81
2023/09/10 10:57:37;;;;;;;21.02;7.72;;;29.70;63.00;;;;;;7400091;19;20002;-81
2023/09/10 11:00:14;;;;;;;12.43;6.50;;;29.70;62.80;;;;;;7408750;19;20032;-81
2023/09/10 11:02:43;;;;;;;10.27;6.55;;;29.70;62.10;;;;;;7408341;19;20010;-82
2023/09/10 11:05:15;;;;;;;18.95;7.25;;;29.70;62.20;;;;;;7430643;19;20018;-81
2023/09/10 11:07:45;;;;;;;17.10;8.43;;;29.80;62.10;;;;;;7389738;19;20006;-80
2023/09/10 11:10:41;;;;;;;21.45;6.82;;;29.80;62.30;;;;;;7386488;19;19999;-81
2023/09/10 11:13:13;;;;;;;10.82;6.85;;;29.80;61.70;;;;;;7386824;19;20002;-80
2023/09/10 11:16:26;;;;;;;13.38;6.60;;;29.80;62.20;;;;;;7386959;19;19998;-81
2023/09/10 11:19:00;;;;;;;14.50;6.50;;;30.00;62.50;;;;;;7387229;19;20255;-82
2023/09/10 11:22:00;;;;;;;11.95;6.35;;;30.00;62.30;;;;;;7386405;19;20211;-81
2023/09/10 11:24:30;;;;;;;17.73;6.13;;;30.10;62.20;;;;;;7384421;19;20002;-81
2023/09/10 11:27:27;;;;;;;15.27;7.10;;;30.20;61.90;;;;;;7384057;19;20402;-80
2023/09/10 11:30:21;;;;;;;17.15;6.65;;;30.30;62.00;;;;;;7386715;19;20011;-81
2023/09/10 11:33:27;;;;;;;15.77;6.53;;;30.30;61.90;;;;;;7384894;19;20014;-81
2023/09/10 11:35:58;;;;;;;15.55;5.95;;;30.40;62.10;;;;;;7384860;19;20016;-81
2023/09/10 11:38:32;;;;;;;13.85;6.15;;;30.40;62.30;;;;;;7383513;19;20007;-81
2023/09/10 11:41:01;;;;;;;16.05;6.22;;;30.50;61.90;;;;;;7407823;19;20011;-81
2023/09/10 11:43:34;;;;;;;11.13;7.05;;;30.50;61.60;;;;;;7384024;19;20015;-81
2023/09/10 11:46:03;;;;;;;11.80;5.95;;;30.60;61.40;;;;;;7384913;19;20031;-81
2023/09/10 11:48:34;;;;;;;8.85;5.88;;;30.70;61.10;;;;;;7384080;19;20031;-81
2023/09/10 11:51:05;;;;;;;8.48;5.40;;;30.70;61.30;;;;;;7384608;19;19999;-81
2023/09/10 11:53:39;;;;;;;13.43;5.88;;;30.80;61.40;;;;;;7383805;19;20014;-81
2023/09/10 11:56:08;;;;;;;8.63;5.57;;;30.80;61.00;;;;;;7403869;19;20011;-80
2023/09/10 11:58:46;;;;;;;13.98;6.65;;;30.90;61.30;;;;;;7383157;19;20007;-81
2023/09/10 12:01:18;;;;;;;11.75;5.85;;;30.90;61.40;;;;;;7384712;19;20223;-81
2023/09/10 12:03:49;;;;;;;15.65;6.07;;;30.90;61.50;;;;;;7382139;19;20010;-82
2023/09/10 12:06:19;;;;;;;14.40;6.05;;;31.00;60.90;;;;;;7383936;19;20010;-81
2023/09/10 12:08:48;;;;;;;15.73;6.07;;;31.10;60.60;;;;;;7384538;19;20013;-79
2023/09/10 12:11:20;;;;;;;12.55;6.35;;;31.20;60.20;;;;;;7403343;19;20010;-81
2023/09/10 12:13:51;;;;;;;13.90;5.82;;;31.20;59.80;;;;;;7383934;19;20007;-81
2023/09/10 12:16:20;;;;;;;16.35;5.40;;;31.20;60.00;;;;;;7382875;19;20109;-80
2023/09/10 12:18:52;;;;;;;15.88;6.13;;;31.30;60.00;;;;;;7383784;19;20569;-80
2023/09/10 12:21:22;;;;;;;12.20;6.32;;;31.40;59.40;;;;;;7383999;19;20068;-80
2023/09/10 12:23:54;;;;;;;13.18;8.40;;;31.40;59.00;;;;;;7384085;19;20006;-80
2023/09/10 12:26:27;;;;;;;15.02;6.18;;;31.50;58.90;;;;;;7382786;19;20010;-80
2023/09/10 12:28:56;;;;;;;12.43;5.65;;;31.60;58.40;;;;;;7406588;19;20003;-80
2023/09/10 12:31:28;;;;;;;11.85;5.97;;;31.70;57.40;;;;;;7382295;19;19999;-81
2023/09/10 12:33:59;;;;;;;11.70;6.00;;;31.70;57.30;;;;;;7383185;19;20373;-81
2023/09/10 12:36:29;;;;;;;13.02;5.80;;;31.80;57.80;;;;;;7383426;19;20006;-81
2023/09/10 12:39:02;;;;;;;11.05;5.32;;;31.90;57.70;;;;;;7383867;19;20007;-81
2023/09/10 12:41:36;;;;;;;11.98;5.78;;;32.00;57.40;;;;;;7382570;19;20010;-81
2023/09/10 12:44:06;;;;;;;7.80;4.95;;;32.10;57.30;;;;;;7423574;19;20018;-81
2023/09/10 12:46:35;;;;;;;;;;;32.10;56.90;;;;;;7404808;19;20003;-82
2023/09/10 12:49:08;;;;;;;12.80;5.55;;;32.20;57.00;;;;;;7404330;19;19987;-80
2023/09/10 12:51:40;;;;;;;11.25;5.47;;;32.20;56.90;;;;;;7401984;19;20039;-81
2023/09/10 12:54:12;;;;;;;8.77;5.53;;;32.30;56.50;;;;;;7383148;19;20038;-80
2023/09/10 12:56:41;;;;;;;10.90;5.85;;;32.40;56.30;;;;;;7383079;19;20070;-80
2023/09/10 12:59:12;;;;;;;15.18;6.03;;;32.40;56.30;;;;;;7407466;19;20002;-80
2023/09/10 13:01:42;;;;;;;9.10;5.85;;;32.50;56.30;;;;;;7382427;19;20066;-80